sensor_id;sensor_type;location;lat;lon;timestamp;temperature;humidity
15107;DHT22;7654;45.308;-75.096;2024-03-02T00:00:12;0.60;99.90
15107;DHT22;7654;45.308;-75.096;2024-03-02T00:02:43;0.50;99.90
15107;DHT22;7654;45.308;-75.096;2024-03-02T00:05:15;0.30;99.90
15107;DHT22;7654;45.308;-75.096;2024-03-02T00:07:46;0.10;99.90
15107;DHT22;7654;45.308;-75.096;2024-03-02T00:10:21;-0.10;99.90
15107;DHT22;7654;45.308;-75.096;2024-03-02T00:12:57;-0.20;99.90
15107;DHT22;7654;45.308;-75.096;2024-03-02T00:15:41;-0.10;99.90
15107;DHT22;7654;45.308;-75.096;2024-03-02T00:18:13;-0.10;99.90
15107;DHT22;7654;45.308;-75.096;2024-03-02T00:20:44;-0.10;99.90
15107;DHT22;7654;45.308;-75.096;2024-03-02T00:23:15;-0.20;99.90
15107;DHT22;7654;45.308;-75.096;2024-03-02T00:25:48;-0.40;99.90
15107;DHT22;7654;45.308;-75.096;2024-03-02T00:28:21;-0.50;99.90
15107;DHT22;7654;45.308;-75.096;2024-03-02T00:31:02;-0.70;99.90
15107;DHT22;7654;45.308;-75.096;2024-03-02T00:33:34;-0.90;99.90
15107;DHT22;7654;45.308;-75.096;2024-03-02T00:36:05;-1.10;99.90
15107;DHT22;7654;45.308;-75.096;2024-03-02T00:38:49;-1.30;99.90
15107;DHT22;7654;45.308;-75.096;2024-03-02T00:41:22;-1.40;99.90
15107;DHT22;7654;45.308;-75.096;2024-03-02T00:43:58;-1.50;99.90
15107;DHT22;7654;45.308;-75.096;2024-03-02T00:46:33;-1.50;99.90
15107;DHT22;7654;45.308;-75.096;2024-03-02T00:49:04;-1.60;99.90
15107;DHT22;7654;45.308;-75.096;2024-03-02T00:51:35;-1.80;99.90
15107;DHT22;7654;45.308;-75.096;2024-03-02T00:54:08;-2.00;99.90
15107;DHT22;7654;45.308;-75.096;2024-03-02T00:56:39;-2.00;99.90
15107;DHT22;7654;45.308;-75.096;2024-03-02T00:59:11;-2.20;99.90
15107;DHT22;7654;45.308;-75.096;2024-03-02T01:01:45;-2.20;99.90
15107;DHT22;7654;45.308;-75.096;2024-03-02T01:04:17;-2.40;99.90
15107;DHT22;7654;45.308;-75.096;2024-03-02T01:06:47;-2.50;99.90
15107;DHT22;7654;45.308;-75.096;2024-03-02T01:09:18;-2.50;99.90
15107;DHT22;7654;45.308;-75.096;2024-03-02T01:11:49;-2.70;99.90
15107;DHT22;7654;45.308;-75.096;2024-03-02T01:14:19;-2.80;99.90
15107;DHT22;7654;45.308;-75.096;2024-03-02T01:16:51;-2.80;99.90
15107;DHT22;7654;45.308;-75.096;2024-03-02T01:19:22;-2.90;99.90
15107;DHT22;7654;45.308;-75.096;2024-03-02T01:21:53;-3.00;99.90
15107;DHT22;7654;45.308;-75.096;2024-03-02T01:24:23;-3.00;99.90
15107;DHT22;7654;45.308;-75.096;2024-03-02T01:26:54;-3.00;99.90
15107;DHT22;7654;45.308;-75.096;2024-03-02T01:29:25;-3.10;99.90
15107;DHT22;7654;45.308;-75.096;2024-03-02T01:31:57;-3.20;99.90
15107;DHT22;7654;45.308;-75.096;2024-03-02T01:34:28;-3.20;99.90
15107;DHT22;7654;45.308;-75.096;2024-03-02T01:36:58;-3.30;99.90
15107;DHT22;7654;45.308;-75.096;2024-03-02T01:39:29;-3.40;99.90
15107;DHT22;7654;45.308;-75.096;2024-03-02T01:41:59;-3.50;99.90
15107;DHT22;7654;45.308;-75.096;2024-03-02T01:44:30;-3.50;99.90
15107;DHT22;7654;45.308;-75.096;2024-03-02T01:47:02;-3.60;99.90
15107;DHT22;7654;45.308;-75.096;2024-03-02T01:49:34;-3.70;99.90
15107;DHT22;7654;45.308;-75.096;2024-03-02T01:52:04;-3.60;99.90
15107;DHT22;7654;45.308;-75.096;2024-03-02T01:54:34;-3.60;99.90
15107;DHT22;7654;45.308;-75.096;2024-03-02T01:57:05;-3.60;99.90
15107;DHT22;7654;45.308;-75.096;2024-03-02T01:59:36;-3.60;99.90
15107;DHT22;7654;45.308;-75.096;2024-03-02T02:02:07;-3.60;99.90
15107;DHT22;7654;45.308;-75.096;2024-03-02T02:04:39;-3.60;99.90
15107;DHT22;7654;45.308;-75.096;2024-03-02T02:07:09;-3.60;99.90
15107;DHT22;7654;45.308;-75.096;2024-03-02T02:09:39;-3.60;99.90
15107;DHT22;7654;45.308;-75.096;2024-03-02T02:12:10;-3.40;99.90
15107;DHT22;7654;45.308;-75.096;2024-03-02T02:14:47;-3.40;99.90
15107;DHT22;7654;45.308;-75.096;2024-03-02T02:17:20;-3.30;99.90
15107;DHT22;7654;45.308;-75.096;2024-03-02T02:19:50;-3.30;99.90
15107;DHT22;7654;45.308;-75.096;2024-03-02T02:22:22;-3.40;99.90
15107;DHT22;7654;45.308;-75.096;2024-03-02T02:24:52;-3.30;99.90
15107;DHT22;7654;45.308;-75.096;2024-03-02T02:27:22;-3.20;99.90
15107;DHT22;7654;45.308;-75.096;2024-03-02T02:29:53;-3.20;99.90
15107;DHT22;7654;45.308;-75.096;2024-03-02T02:32:24;-3.20;99.90
15107;DHT22;7654;45.308;-75.096;2024-03-02T02:34:55;-3.30;99.90
15107;DHT22;7654;45.308;-75.096;2024-03-02T02:37:26;-3.30;99.90
15107;DHT22;7654;45.308;-75.096;2024-03-02T02:39:57;-3.30;99.90
15107;DHT22;7654;45.308;-75.096;2024-03-02T02:42:27;-3.30;99.90
15107;DHT22;7654;45.308;-75.096;2024-03-02T02:44:57;-3.40;99.90
15107;DHT22;7654;45.308;-75.096;2024-03-02T02:47:28;-3.50;99.90
15107;DHT22;7654;45.308;-75.096;2024-03-02T02:49:58;-3.50;99.90
15107;DHT22;7654;45.308;-75.096;2024-03-02T02:52:33;-3.50;99.90
15107;DHT22;7654;45.308;-75.096;2024-03-02T02:55:05;-3.50;99.90
15107;DHT22;7654;45.308;-75.096;2024-03-02T02:57:36;-3.60;99.90
15107;DHT22;7654;45.308;-75.096;2024-03-02T03:00:08;-3.70;99.90
15107;DHT22;7654;45.308;-75.096;2024-03-02T03:02:45;-3.70;99.90
15107;DHT22;7654;45.308;-75.096;2024-03-02T03:05:18;-3.70;99.90
15107;DHT22;7654;45.308;-75.096;2024-03-02T03:07:50;-3.70;99.90
15107;DHT22;7654;45.308;-75.096;2024-03-02T03:10:20;-3.70;99.90
15107;DHT22;7654;45.308;-75.096;2024-03-02T03:12:51;-3.80;99.90
15107;DHT22;7654;45.308;-75.096;2024-03-02T03:15:22;-3.90;99.90
15107;DHT22;7654;45.308;-75.096;2024-03-02T03:17:52;-4.00;99.90
15107;DHT22;7654;45.308;-75.096;2024-03-02T03:20:22;-4.10;99.90
15107;DHT22;7654;45.308;-75.096;2024-03-02T03:22:54;-4.10;99.90
15107;DHT22;7654;45.308;-75.096;2024-03-02T03:25:26;-4.00;99.90
15107;DHT22;7654;45.308;-75.096;2024-03-02T03:27:56;-4.00;99.90
15107;DHT22;7654;45.308;-75.096;2024-03-02T03:30:26;-4.10;99.90
15107;DHT22;7654;45.308;-75.096;2024-03-02T03:32:57;-4.10;99.90
15107;DHT22;7654;45.308;-75.096;2024-03-02T03:35:27;-4.10;99.90
15107;DHT22;7654;45.308;-75.096;2024-03-02T03:37:58;-4.00;99.90
15107;DHT22;7654;45.308;-75.096;2024-03-02T03:40:29;-4.10;99.90
15107;DHT22;7654;45.308;-75.096;2024-03-02T03:42:59;-4.20;99.90
15107;DHT22;7654;45.308;-75.096;2024-03-02T03:45:29;-4.30;99.90
15107;DHT22;7654;45.308;-75.096;2024-03-02T03:47:59;-4.40;99.90
15107;DHT22;7654;45.308;-75.096;2024-03-02T03:50:29;-4.40;99.90
15107;DHT22;7654;45.308;-75.096;2024-03-02T03:53:01;-4.40;99.90
15107;DHT22;7654;45.308;-75.096;2024-03-02T03:55:31;-4.40;99.90
15107;DHT22;7654;45.308;-75.096;2024-03-02T03:58:02;-4.50;99.90
15107;DHT22;7654;45.308;-75.096;2024-03-02T04:00:33;-4.50;99.90
15107;DHT22;7654;45.308;-75.096;2024-03-02T04:03:04;-4.50;99.90
15107;DHT22;7654;45.308;-75.096;2024-03-02T04:05:34;-4.50;99.90
15107;DHT22;7654;45.308;-75.096;2024-03-02T04:08:06;-4.30;99.90
15107;DHT22;7654;45.308;-75.096;2024-03-02T04:10:36;-4.20;99.90
15107;DHT22;7654;45.308;-75.096;2024-03-02T04:13:07;-4.10;99.90
15107;DHT22;7654;45.308;-75.096;2024-03-02T04:15:38;-4.10;99.90
15107;DHT22;7654;45.308;-75.096;2024-03-02T04:18:08;-4.10;99.90
15107;DHT22;7654;45.308;-75.096;2024-03-02T04:20:39;-4.20;99.90
15107;DHT22;7654;45.308;-75.096;2024-03-02T04:23:10;-4.00;99.90
15107;DHT22;7654;45.308;-75.096;2024-03-02T04:25:40;-4.00;99.90
15107;DHT22;7654;45.308;-75.096;2024-03-02T04:28:11;-4.10;99.90
15107;DHT22;7654;45.308;-75.096;2024-03-02T04:30:41;-4.20;99.90
15107;DHT22;7654;45.308;-75.096;2024-03-02T04:33:11;-4.30;99.90
15107;DHT22;7654;45.308;-75.096;2024-03-02T04:35:41;-4.30;99.90
15107;DHT22;7654;45.308;-75.096;2024-03-02T04:38:13;-4.20;99.90
15107;DHT22;7654;45.308;-75.096;2024-03-02T04:40:43;-4.20;99.90
15107;DHT22;7654;45.308;-75.096;2024-03-02T04:43:14;-4.20;99.90
15107;DHT22;7654;45.308;-75.096;2024-03-02T04:45:44;-4.20;99.90
15107;DHT22;7654;45.308;-75.096;2024-03-02T04:48:14;-4.10;99.90
15107;DHT22;7654;45.308;-75.096;2024-03-02T04:50:45;-4.10;99.90
15107;DHT22;7654;45.308;-75.096;2024-03-02T04:53:16;-4.10;99.90
15107;DHT22;7654;45.308;-75.096;2024-03-02T04:55:47;-4.10;99.90
15107;DHT22;7654;45.308;-75.096;2024-03-02T04:58:36;-4.00;99.90
15107;DHT22;7654;45.308;-75.096;2024-03-02T05:01:06;-4.10;99.90
15107;DHT22;7654;45.308;-75.096;2024-03-02T05:03:37;-4.20;99.90
15107;DHT22;7654;45.308;-75.096;2024-03-02T05:06:07;-4.30;99.90
15107;DHT22;7654;45.308;-75.096;2024-03-02T05:08:39;-4.40;99.90
15107;DHT22;7654;45.308;-75.096;2024-03-02T05:11:09;-4.50;99.90
15107;DHT22;7654;45.308;-75.096;2024-03-02T05:14:20;-4.50;99.90
15107;DHT22;7654;45.308;-75.096;2024-03-02T05:16:50;-4.60;99.90
15107;DHT22;7654;45.308;-75.096;2024-03-02T05:19:20;-4.70;99.90
15107;DHT22;7654;45.308;-75.096;2024-03-02T05:21:50;-4.80;99.90
15107;DHT22;7654;45.308;-75.096;2024-03-02T05:24:22;-4.70;99.90
15107;DHT22;7654;45.308;-75.096;2024-03-02T05:26:55;-4.70;99.90
15107;DHT22;7654;45.308;-75.096;2024-03-02T05:29:25;-4.60;99.90
15107;DHT22;7654;45.308;-75.096;2024-03-02T05:31:55;-4.50;99.90
15107;DHT22;7654;45.308;-75.096;2024-03-02T05:34:26;-4.50;99.90
15107;DHT22;7654;45.308;-75.096;2024-03-02T05:36:56;-4.50;99.90
15107;DHT22;7654;45.308;-75.096;2024-03-02T05:39:29;-4.40;99.90
15107;DHT22;7654;45.308;-75.096;2024-03-02T05:41:59;-4.40;99.90
15107;DHT22;7654;45.308;-75.096;2024-03-02T05:44:29;-4.40;99.90
15107;DHT22;7654;45.308;-75.096;2024-03-02T05:47:00;-4.30;99.90
15107;DHT22;7654;45.308;-75.096;2024-03-02T05:49:30;-4.20;99.90
15107;DHT22;7654;45.308;-75.096;2024-03-02T05:52:00;-4.20;99.90
15107;DHT22;7654;45.308;-75.096;2024-03-02T05:54:33;-4.10;99.90
15107;DHT22;7654;45.308;-75.096;2024-03-02T05:57:03;-4.10;99.90
15107;DHT22;7654;45.308;-75.096;2024-03-02T05:59:54;-4.10;99.90
15107;DHT22;7654;45.308;-75.096;2024-03-02T06:02:25;-4.10;99.90
15107;DHT22;7654;45.308;-75.096;2024-03-02T06:04:56;-4.10;99.90
15107;DHT22;7654;45.308;-75.096;2024-03-02T06:07:27;-4.10;99.90
15107;DHT22;7654;45.308;-75.096;2024-03-02T06:09:58;-4.10;99.90
15107;DHT22;7654;45.308;-75.096;2024-03-02T06:12:30;-4.10;99.90
15107;DHT22;7654;45.308;-75.096;2024-03-02T06:15:01;-4.20;99.90
15107;DHT22;7654;45.308;-75.096;2024-03-02T06:17:32;-4.20;99.90
15107;DHT22;7654;45.308;-75.096;2024-03-02T06:20:03;-4.30;99.90
15107;DHT22;7654;45.308;-75.096;2024-03-02T06:22:33;-4.40;99.90
15107;DHT22;7654;45.308;-75.096;2024-03-02T06:25:05;-4.50;99.90
15107;DHT22;7654;45.308;-75.096;2024-03-02T06:27:36;-4.50;99.90
15107;DHT22;7654;45.308;-75.096;2024-03-02T06:30:06;-4.50;99.90
15107;DHT22;7654;45.308;-75.096;2024-03-02T06:32:37;-4.60;99.90
15107;DHT22;7654;45.308;-75.096;2024-03-02T06:35:07;-4.70;99.90
15107;DHT22;7654;45.308;-75.096;2024-03-02T06:37:38;-4.70;99.90
15107;DHT22;7654;45.308;-75.096;2024-03-02T06:40:11;-4.70;99.90
15107;DHT22;7654;45.308;-75.096;2024-03-02T06:42:41;-4.70;99.90
15107;DHT22;7654;45.308;-75.096;2024-03-02T06:45:11;-4.60;99.90
15107;DHT22;7654;45.308;-75.096;2024-03-02T06:47:41;-4.70;99.90
15107;DHT22;7654;45.308;-75.096;2024-03-02T06:50:12;-4.50;99.90
15107;DHT22;7654;45.308;-75.096;2024-03-02T06:52:42;-4.50;99.90
15107;DHT22;7654;45.308;-75.096;2024-03-02T06:55:14;-4.60;99.90
15107;DHT22;7654;45.308;-75.096;2024-03-02T06:57:45;-4.60;99.90
15107;DHT22;7654;45.308;-75.096;2024-03-02T07:00:15;-4.60;99.90
15107;DHT22;7654;45.308;-75.096;2024-03-02T07:02:46;-4.50;99.90
15107;DHT22;7654;45.308;-75.096;2024-03-02T07:05:16;-4.30;99.90
15107;DHT22;7654;45.308;-75.096;2024-03-02T07:07:47;-4.20;99.90
15107;DHT22;7654;45.308;-75.096;2024-03-02T07:10:19;-4.40;99.90
15107;DHT22;7654;45.308;-75.096;2024-03-02T07:12:49;-4.40;99.90
15107;DHT22;7654;45.308;-75.096;2024-03-02T07:15:20;-4.30;99.90
15107;DHT22;7654;45.308;-75.096;2024-03-02T07:18:07;-4.50;99.90
15107;DHT22;7654;45.308;-75.096;2024-03-02T07:20:37;-4.50;99.90
15107;DHT22;7654;45.308;-75.096;2024-03-02T07:23:08;-4.60;99.90
15107;DHT22;7654;45.308;-75.096;2024-03-02T07:25:41;-4.70;99.90
15107;DHT22;7654;45.308;-75.096;2024-03-02T07:28:13;-4.70;99.90
15107;DHT22;7654;45.308;-75.096;2024-03-02T07:30:44;-4.80;99.90
15107;DHT22;7654;45.308;-75.096;2024-03-02T07:33:14;-4.90;99.90
15107;DHT22;7654;45.308;-75.096;2024-03-02T07:35:45;-5.00;99.90
15107;DHT22;7654;45.308;-75.096;2024-03-02T07:38:15;-5.00;99.90
15107;DHT22;7654;45.308;-75.096;2024-03-02T07:40:48;-5.10;99.90
15107;DHT22;7654;45.308;-75.096;2024-03-02T07:43:19;-5.10;99.90
15107;DHT22;7654;45.308;-75.096;2024-03-02T07:45:50;-5.10;99.90
15107;DHT22;7654;45.308;-75.096;2024-03-02T07:48:20;-5.10;99.90
15107;DHT22;7654;45.308;-75.096;2024-03-02T07:50:50;-5.20;99.90
15107;DHT22;7654;45.308;-75.096;2024-03-02T07:53:21;-5.30;99.90
15107;DHT22;7654;45.308;-75.096;2024-03-02T07:55:52;-5.40;99.90
15107;DHT22;7654;45.308;-75.096;2024-03-02T07:58:22;-5.40;99.90
15107;DHT22;7654;45.308;-75.096;2024-03-02T08:00:53;-5.40;99.90
15107;DHT22;7654;45.308;-75.096;2024-03-02T08:03:23;-5.40;99.90
15107;DHT22;7654;45.308;-75.096;2024-03-02T08:05:53;-5.50;99.90
15107;DHT22;7654;45.308;-75.096;2024-03-02T08:08:24;-5.50;99.90
15107;DHT22;7654;45.308;-75.096;2024-03-02T08:10:56;-5.50;99.90
15107;DHT22;7654;45.308;-75.096;2024-03-02T08:13:28;-5.60;99.90
15107;DHT22;7654;45.308;-75.096;2024-03-02T08:15:59;-5.60;99.90
15107;DHT22;7654;45.308;-75.096;2024-03-02T08:18:31;-5.60;99.90
15107;DHT22;7654;45.308;-75.096;2024-03-02T08:21:02;-5.60;99.90
15107;DHT22;7654;45.308;-75.096;2024-03-02T08:23:32;-5.60;99.90
15107;DHT22;7654;45.308;-75.096;2024-03-02T08:26:04;-5.60;99.90
15107;DHT22;7654;45.308;-75.096;2024-03-02T08:28:35;-5.70;99.90
15107;DHT22;7654;45.308;-75.096;2024-03-02T08:31:08;-5.60;99.90
15107;DHT22;7654;45.308;-75.096;2024-03-02T08:33:38;-5.70;99.90
15107;DHT22;7654;45.308;-75.096;2024-03-02T08:36:10;-5.60;99.90
15107;DHT22;7654;45.308;-75.096;2024-03-02T08:38:40;-5.50;99.90
15107;DHT22;7654;45.308;-75.096;2024-03-02T08:41:14;-5.50;99.90
15107;DHT22;7654;45.308;-75.096;2024-03-02T08:43:44;-5.50;99.90
15107;DHT22;7654;45.308;-75.096;2024-03-02T08:46:15;-5.60;99.90
15107;DHT22;7654;45.308;-75.096;2024-03-02T08:48:45;-5.70;99.90
15107;DHT22;7654;45.308;-75.096;2024-03-02T08:51:15;-5.80;99.90
15107;DHT22;7654;45.308;-75.096;2024-03-02T08:53:45;-5.90;99.90
15107;DHT22;7654;45.308;-75.096;2024-03-02T08:56:17;-5.90;99.90
15107;DHT22;7654;45.308;-75.096;2024-03-02T08:58:48;-5.90;99.90
15107;DHT22;7654;45.308;-75.096;2024-03-02T09:01:19;-5.90;99.90
15107;DHT22;7654;45.308;-75.096;2024-03-02T09:03:50;-5.90;99.90
15107;DHT22;7654;45.308;-75.096;2024-03-02T09:06:20;-6.00;99.90
15107;DHT22;7654;45.308;-75.096;2024-03-02T09:08:50;-6.00;99.90
15107;DHT22;7654;45.308;-75.096;2024-03-02T09:11:23;-5.90;99.90
15107;DHT22;7654;45.308;-75.096;2024-03-02T09:13:55;-5.90;99.90
15107;DHT22;7654;45.308;-75.096;2024-03-02T09:16:26;-5.80;99.90
15107;DHT22;7654;45.308;-75.096;2024-03-02T09:18:59;-5.90;99.90
15107;DHT22;7654;45.308;-75.096;2024-03-02T09:21:29;-5.90;99.90
15107;DHT22;7654;45.308;-75.096;2024-03-02T09:23:59;-5.80;99.90
15107;DHT22;7654;45.308;-75.096;2024-03-02T09:26:31;-5.80;99.90
15107;DHT22;7654;45.308;-75.096;2024-03-02T09:29:02;-5.70;99.90
15107;DHT22;7654;45.308;-75.096;2024-03-02T09:31:32;-5.60;99.90
15107;DHT22;7654;45.308;-75.096;2024-03-02T09:34:02;-5.40;99.90
15107;DHT22;7654;45.308;-75.096;2024-03-02T09:36:33;-5.30;99.90
15107;DHT22;7654;45.308;-75.096;2024-03-02T09:39:04;-5.20;99.90
15107;DHT22;7654;45.308;-75.096;2024-03-02T09:41:36;-5.10;99.90
15107;DHT22;7654;45.308;-75.096;2024-03-02T09:44:06;-5.00;99.90
15107;DHT22;7654;45.308;-75.096;2024-03-02T09:46:36;-5.00;99.90
15107;DHT22;7654;45.308;-75.096;2024-03-02T09:49:07;-4.90;99.90
15107;DHT22;7654;45.308;-75.096;2024-03-02T09:51:37;-4.80;99.90
15107;DHT22;7654;45.308;-75.096;2024-03-02T09:54:08;-4.80;99.90
15107;DHT22;7654;45.308;-75.096;2024-03-02T09:56:50;-4.70;99.90
15107;DHT22;7654;45.308;-75.096;2024-03-02T09:59:21;-4.80;99.90
15107;DHT22;7654;45.308;-75.096;2024-03-02T10:01:58;-4.80;99.90
15107;DHT22;7654;45.308;-75.096;2024-03-02T10:04:29;-4.80;99.90
15107;DHT22;7654;45.308;-75.096;2024-03-02T10:07:16;-4.80;99.90
15107;DHT22;7654;45.308;-75.096;2024-03-02T10:09:47;-5.00;99.90
15107;DHT22;7654;45.308;-75.096;2024-03-02T10:12:19;-5.00;99.90
15107;DHT22;7654;45.308;-75.096;2024-03-02T10:15:03;-5.10;99.90
15107;DHT22;7654;45.308;-75.096;2024-03-02T10:17:37;-5.10;99.90
15107;DHT22;7654;45.308;-75.096;2024-03-02T10:20:24;-5.10;99.90
15107;DHT22;7654;45.308;-75.096;2024-03-02T10:22:54;-5.20;99.90
15107;DHT22;7654;45.308;-75.096;2024-03-02T10:25:31;-5.10;99.90
15107;DHT22;7654;45.308;-75.096;2024-03-02T10:28:06;-5.10;99.90
15107;DHT22;7654;45.308;-75.096;2024-03-02T10:30:37;-5.00;99.90
15107;DHT22;7654;45.308;-75.096;2024-03-02T10:33:07;-4.90;99.90
15107;DHT22;7654;45.308;-75.096;2024-03-02T10:35:39;-4.80;99.90
15107;DHT22;7654;45.308;-75.096;2024-03-02T10:38:11;-4.80;99.90
15107;DHT22;7654;45.308;-75.096;2024-03-02T10:40:42;-4.70;99.90
15107;DHT22;7654;45.308;-75.096;2024-03-02T10:43:19;-4.60;99.90
15107;DHT22;7654;45.308;-75.096;2024-03-02T10:45:50;-4.50;99.90
15107;DHT22;7654;45.308;-75.096;2024-03-02T10:48:21;-4.40;99.90
15107;DHT22;7654;45.308;-75.096;2024-03-02T10:50:51;-4.30;99.90
15107;DHT22;7654;45.308;-75.096;2024-03-02T10:53:21;-4.30;99.90
15107;DHT22;7654;45.308;-75.096;2024-03-02T10:55:55;-4.30;99.90
15107;DHT22;7654;45.308;-75.096;2024-03-02T10:58:33;-4.30;99.90
15107;DHT22;7654;45.308;-75.096;2024-03-02T11:01:04;-4.20;99.90
15107;DHT22;7654;45.308;-75.096;2024-03-02T11:03:36;-4.30;99.90
15107;DHT22;7654;45.308;-75.096;2024-03-02T11:06:08;-4.20;99.90
15107;DHT22;7654;45.308;-75.096;2024-03-02T11:08:39;-4.30;99.90
15107;DHT22;7654;45.308;-75.096;2024-03-02T11:11:15;-4.30;99.90
15107;DHT22;7654;45.308;-75.096;2024-03-02T11:13:51;-4.40;99.90
15107;DHT22;7654;45.308;-75.096;2024-03-02T11:16:30;-4.50;99.90
15107;DHT22;7654;45.308;-75.096;2024-03-02T11:19:04;-4.60;99.90
15107;DHT22;7654;45.308;-75.096;2024-03-02T11:21:36;-4.70;99.90
15107;DHT22;7654;45.308;-75.096;2024-03-02T11:24:33;-4.80;99.90
15107;DHT22;7654;45.308;-75.096;2024-03-02T11:27:06;-4.80;99.90
15107;DHT22;7654;45.308;-75.096;2024-03-02T11:29:45;-4.80;99.90
15107;DHT22;7654;45.308;-75.096;2024-03-02T11:32:19;-4.90;99.90
15107;DHT22;7654;45.308;-75.096;2024-03-02T11:34:50;-5.00;99.90
15107;DHT22;7654;45.308;-75.096;2024-03-02T11:37:21;-5.10;99.90
15107;DHT22;7654;45.308;-75.096;2024-03-02T11:39:51;-5.10;99.90
15107;DHT22;7654;45.308;-75.096;2024-03-02T11:42:22;-5.10;99.90
15107;DHT22;7654;45.308;-75.096;2024-03-02T11:44:57;-5.10;99.90
15107;DHT22;7654;45.308;-75.096;2024-03-02T11:47:31;-5.20;99.90
15107;DHT22;7654;45.308;-75.096;2024-03-02T11:50:06;-5.20;99.90
15107;DHT22;7654;45.308;-75.096;2024-03-02T11:52:36;-5.20;99.90
15107;DHT22;7654;45.308;-75.096;2024-03-02T11:55:09;-5.30;99.90
15107;DHT22;7654;45.308;-75.096;2024-03-02T11:57:39;-5.30;99.90
15107;DHT22;7654;45.308;-75.096;2024-03-02T12:00:19;-5.30;99.90
15107;DHT22;7654;45.308;-75.096;2024-03-02T12:03:00;-5.10;99.90
15107;DHT22;7654;45.308;-75.096;2024-03-02T12:05:33;-4.80;99.90
15107;DHT22;7654;45.308;-75.096;2024-03-02T12:08:05;-4.70;99.90
15107;DHT22;7654;45.308;-75.096;2024-03-02T12:10:56;-4.60;99.90
15107;DHT22;7654;45.308;-75.096;2024-03-02T12:13:32;-4.30;99.90
15107;DHT22;7654;45.308;-75.096;2024-03-02T12:16:05;-4.20;99.90
15107;DHT22;7654;45.308;-75.096;2024-03-02T12:18:36;-4.00;99.90
15107;DHT22;7654;45.308;-75.096;2024-03-02T12:21:06;-3.80;99.90
15107;DHT22;7654;45.308;-75.096;2024-03-02T12:23:37;-3.60;99.90
15107;DHT22;7654;45.308;-75.096;2024-03-02T12:26:07;-3.40;99.90
15107;DHT22;7654;45.308;-75.096;2024-03-02T12:28:38;-3.20;99.90
15107;DHT22;7654;45.308;-75.096;2024-03-02T12:31:10;-3.00;99.90
15107;DHT22;7654;45.308;-75.096;2024-03-02T12:33:41;-2.80;99.90
15107;DHT22;7654;45.308;-75.096;2024-03-02T12:36:12;-2.60;99.90
15107;DHT22;7654;45.308;-75.096;2024-03-02T12:38:44;-2.50;99.90
15107;DHT22;7654;45.308;-75.096;2024-03-02T12:41:15;-2.40;99.90
15107;DHT22;7654;45.308;-75.096;2024-03-02T12:43:46;-2.30;99.90
15107;DHT22;7654;45.308;-75.096;2024-03-02T12:46:18;-2.20;99.90
15107;DHT22;7654;45.308;-75.096;2024-03-02T12:48:48;-2.10;99.90
15107;DHT22;7654;45.308;-75.096;2024-03-02T12:51:18;-2.00;99.90
15107;DHT22;7654;45.308;-75.096;2024-03-02T12:53:54;-1.80;99.90
15107;DHT22;7654;45.308;-75.096;2024-03-02T12:56:24;-1.70;99.90
15107;DHT22;7654;45.308;-75.096;2024-03-02T12:58:55;-1.50;99.90
15107;DHT22;7654;45.308;-75.096;2024-03-02T13:01:27;-1.40;99.90
15107;DHT22;7654;45.308;-75.096;2024-03-02T13:03:58;-1.20;99.90
15107;DHT22;7654;45.308;-75.096;2024-03-02T13:06:29;-1.00;99.90
15107;DHT22;7654;45.308;-75.096;2024-03-02T13:08:59;-0.90;99.90
15107;DHT22;7654;45.308;-75.096;2024-03-02T13:11:29;-0.80;99.90
15107;DHT22;7654;45.308;-75.096;2024-03-02T13:14:01;-0.60;99.90
15107;DHT22;7654;45.308;-75.096;2024-03-02T13:16:38;-0.50;99.90
15107;DHT22;7654;45.308;-75.096;2024-03-02T13:19:14;-0.40;99.90
15107;DHT22;7654;45.308;-75.096;2024-03-02T13:21:44;-0.20;99.90
15107;DHT22;7654;45.308;-75.096;2024-03-02T13:24:15;-0.20;99.90
15107;DHT22;7654;45.308;-75.096;2024-03-02T13:26:45;-0.20;99.90
15107;DHT22;7654;45.308;-75.096;2024-03-02T13:29:15;0.00;99.90
15107;DHT22;7654;45.308;-75.096;2024-03-02T13:31:48;0.00;99.90
15107;DHT22;7654;45.308;-75.096;2024-03-02T13:34:20;0.10;99.90
15107;DHT22;7654;45.308;-75.096;2024-03-02T13:36:50;0.30;99.90
15107;DHT22;7654;45.308;-75.096;2024-03-02T13:39:20;0.40;99.90
15107;DHT22;7654;45.308;-75.096;2024-03-02T13:41:51;0.60;99.90
15107;DHT22;7654;45.308;-75.096;2024-03-02T13:44:30;0.70;99.90
15107;DHT22;7654;45.308;-75.096;2024-03-02T13:47:02;0.80;99.90
15107;DHT22;7654;45.308;-75.096;2024-03-02T13:49:32;0.90;99.90
15107;DHT22;7654;45.308;-75.096;2024-03-02T13:52:07;1.00;99.90
15107;DHT22;7654;45.308;-75.096;2024-03-02T13:54:42;1.10;99.90
15107;DHT22;7654;45.308;-75.096;2024-03-02T13:57:12;1.20;99.90
15107;DHT22;7654;45.308;-75.096;2024-03-02T13:59:43;1.30;99.90
15107;DHT22;7654;45.308;-75.096;2024-03-02T14:02:15;1.40;99.90
15107;DHT22;7654;45.308;-75.096;2024-03-02T14:04:45;1.60;99.90
15107;DHT22;7654;45.308;-75.096;2024-03-02T14:07:18;1.70;99.90
15107;DHT22;7654;45.308;-75.096;2024-03-02T14:09:48;1.70;99.90
15107;DHT22;7654;45.308;-75.096;2024-03-02T14:12:19;1.80;99.90
15107;DHT22;7654;45.308;-75.096;2024-03-02T14:14:50;1.90;99.90
15107;DHT22;7654;45.308;-75.096;2024-03-02T14:17:25;2.00;99.90
15107;DHT22;7654;45.308;-75.096;2024-03-02T14:19:55;2.10;99.90
15107;DHT22;7654;45.308;-75.096;2024-03-02T14:22:27;2.20;99.90
15107;DHT22;7654;45.308;-75.096;2024-03-02T14:24:57;2.40;99.90
15107;DHT22;7654;45.308;-75.096;2024-03-02T14:27:27;2.30;99.90
15107;DHT22;7654;45.308;-75.096;2024-03-02T14:30:17;2.50;99.90
15107;DHT22;7654;45.308;-75.096;2024-03-02T14:32:49;2.60;99.90
15107;DHT22;7654;45.308;-75.096;2024-03-02T14:35:20;2.70;99.90
15107;DHT22;7654;45.308;-75.096;2024-03-02T14:37:50;2.70;99.90
15107;DHT22;7654;45.308;-75.096;2024-03-02T14:40:21;2.90;99.90
15107;DHT22;7654;45.308;-75.096;2024-03-02T14:42:53;3.10;99.90
15107;DHT22;7654;45.308;-75.096;2024-03-02T14:45:24;3.10;99.90
15107;DHT22;7654;45.308;-75.096;2024-03-02T14:47:56;3.20;99.90
15107;DHT22;7654;45.308;-75.096;2024-03-02T14:50:28;3.30;99.90
15107;DHT22;7654;45.308;-75.096;2024-03-02T14:52:58;3.50;99.90
15107;DHT22;7654;45.308;-75.096;2024-03-02T14:55:30;3.60;99.90
15107;DHT22;7654;45.308;-75.096;2024-03-02T14:58:00;3.80;99.90
15107;DHT22;7654;45.308;-75.096;2024-03-02T15:00:30;3.80;99.90
15107;DHT22;7654;45.308;-75.096;2024-03-02T15:03:04;4.10;99.90
15107;DHT22;7654;45.308;-75.096;2024-03-02T15:05:36;4.20;99.90
15107;DHT22;7654;45.308;-75.096;2024-03-02T15:08:07;4.40;99.90
15107;DHT22;7654;45.308;-75.096;2024-03-02T15:10:37;4.30;99.90
15107;DHT22;7654;45.308;-75.096;2024-03-02T15:13:11;4.30;99.90
15107;DHT22;7654;45.308;-75.096;2024-03-02T15:15:41;4.30;99.90
15107;DHT22;7654;45.308;-75.096;2024-03-02T15:18:14;4.20;99.90
15107;DHT22;7654;45.308;-75.096;2024-03-02T15:20:46;4.30;99.90
15107;DHT22;7654;45.308;-75.096;2024-03-02T15:23:16;4.40;99.90
15107;DHT22;7654;45.308;-75.096;2024-03-02T15:25:46;4.50;99.90
15107;DHT22;7654;45.308;-75.096;2024-03-02T15:28:16;4.60;99.90
15107;DHT22;7654;45.308;-75.096;2024-03-02T15:30:46;4.80;99.90
15107;DHT22;7654;45.308;-75.096;2024-03-02T15:33:22;5.00;99.90
15107;DHT22;7654;45.308;-75.096;2024-03-02T15:35:59;5.00;99.90
15107;DHT22;7654;45.308;-75.096;2024-03-02T15:38:30;5.10;99.90
15107;DHT22;7654;45.308;-75.096;2024-03-02T15:41:04;5.10;99.90
15107;DHT22;7654;45.308;-75.096;2024-03-02T15:43:34;5.20;99.90
15107;DHT22;7654;45.308;-75.096;2024-03-02T15:46:07;5.30;99.90